Time;durP1;ratioP1;P1;durP2;ratioP2;P2;SDS_P1;SDS_P2;PMS_P1;PMS_P2;Temp;Humidity;BMP_temperature;BMP_pressure;BME280_temperature;BME280_humidity;BME280_pressure;Samples;Min_cycle;Max_cycle;Signal;HPM_P1;HPM_P2
2023/05/07 00:02:07;;;;;;;4.93;2.47;;;;;;;;;;5084812;28;20365;-86
2023/05/07 00:04:36;;;;;;;2.45;1.73;;;;;;;;;;5082590;28;20039;-86
2023/05/07 00:07:02;;;;;;;4.32;2.50;;;;;;;;;;5085978;28;20058;-87
2023/05/07 00:09:28;;;;;;;4.35;2.17;;;;;;;;;;5080721;28;20027;-89
2023/05/07 00:11:54;;;;;;;3.25;2.08;;;;;;;;;;5083333;28;20032;-86
2023/05/07 00:14:20;;;;;;;2.90;2.03;;;;;;;;;;5084176;28;20388;-86
2023/05/07 00:16:46;;;;;;;3.63;2.50;;;;;;;;;;5082685;28;20016;-89
2023/05/07 00:19:11;;;;;;;3.58;2.40;;;;;;;;;;5080045;28;20028;-87
2023/05/07 00:21:40;;;;;;;4.25;2.50;;;;;;;;;;5084032;28;20568;-86
2023/05/07 00:24:21;;;;;;;3.00;2.20;;;;;;;;;;5083427;28;20032;-89
2023/05/07 00:26:47;;;;;;;2.28;1.70;;;;;;;;;;5081757;28;20039;-87
2023/05/07 00:29:12;;;;;;;6.03;2.20;;;;;;;;;;5081021;28;20377;-85
2023/05/07 00:31:48;;;;;;;4.22;2.75;;;;;;;;;;5083386;28;20395;-86
2023/05/07 00:34:17;;;;;;;6.72;3.08;;;;;;;;;;5081184;28;20020;-84
2023/05/07 00:36:45;;;;;;;4.28;2.95;;;;;;;;;;5078183;28;20122;-86
2023/05/07 00:39:13;;;;;;;6.45;3.50;;;;;;;;;;5081920;28;20024;-86
2023/05/07 00:41:38;;;;;;;4.20;2.45;;;;;;;;;;5083018;28;20044;-84
2023/05/07 00:44:04;;;;;;;4.28;2.45;;;;;;;;;;5083369;28;20089;-85
2023/05/07 00:46:38;;;;;;;4.88;2.60;;;;;;;;;;5082931;28;20024;-87
2023/05/07 00:49:04;;;;;;;9.40;3.45;;;;;;;;;;5082047;28;20028;-88
2023/05/07 00:51:30;;;;;;;4.53;2.40;;;;;;;;;;5082685;28;20028;-87
2023/05/07 00:54:03;;;;;;;3.42;2.33;;;;;;;;;;5079027;28;20431;-86
2023/05/07 00:56:29;;;;;;;5.03;3.10;;;;;;;;;;5082685;28;20020;-88
2023/05/07 00:58:55;;;;;;;4.57;2.38;;;;;;;;;;5080999;28;20385;-88
2023/05/07 01:01:21;;;;;;;3.47;1.77;;;;;;;;;;5080627;28;20375;-86
2023/05/07 01:03:46;;;;;;;3.70;2.65;;;;;;;;;;5079451;28;20047;-84
2023/05/07 01:06:16;;;;;;;4.97;2.95;;;;;;;;;;5085814;28;20028;-86
2023/05/07 01:08:42;;;;;;;;;;;;;;;;;;5079559;28;20021;-89
2023/05/07 01:11:12;;;;;;;3.55;2.17;;;;;;;;;;5078705;28;20272;-89
2023/05/07 01:13:38;;;;;;;3.72;2.80;;;;;;;;;;5087329;28;20028;-87
2023/05/07 01:16:04;;;;;;;5.45;3.67;;;;;;;;;;5077303;28;20085;-86
2023/05/07 01:18:30;;;;;;;5.63;3.20;;;;;;;;;;5083186;28;20056;-84
2023/05/07 01:20:58;;;;;;;4.57;3.10;;;;;;;;;;5079542;28;20396;-85
2023/05/07 01:23:25;;;;;;;4.50;2.70;;;;;;;;;;5079929;28;20036;-83
2023/05/07 01:25:54;;;;;;;6.18;3.78;;;;;;;;;;5080313;28;20024;-84
2023/05/07 01:28:20;;;;;;;4.53;2.53;;;;;;;;;;5075649;28;20051;-85
2023/05/07 01:30:55;;;;;;;3.67;1.95;;;;;;;;;;5079731;28;20025;-86
2023/05/07 01:33:22;;;;;;;4.45;3.03;;;;;;;;;;5081755;28;20032;-85
2023/05/07 01:35:51;;;;;;;3.95;2.88;;;;;;;;;;5078475;28;20089;-88
2023/05/07 01:38:24;;;;;;;4.82;2.55;;;;;;;;;;5083604;28;20107;-87
2023/05/07 01:40:50;;;;;;;4.95;2.90;;;;;;;;;;5079704;28;20021;-85
2023/05/07 01:43:18;;;;;;;5.03;3.05;;;;;;;;;;5081600;28;20054;-85
2023/05/07 01:45:45;;;;;;;4.30;2.55;;;;;;;;;;5079690;28;20080;-86
2023/05/07 01:48:12;;;;;;;4.93;2.88;;;;;;;;;;5081409;28;20027;-84
2023/05/07 01:50:39;;;;;;;4.13;2.80;;;;;;;;;;5081856;28;20046;-84
2023/05/07 01:53:04;;;;;;;7.45;2.92;;;;;;;;;;5076247;28;20028;-86
2023/05/07 01:55:36;;;;;;;4.85;2.78;;;;;;;;;;5082449;28;20093;-86
2023/05/07 01:58:04;;;;;;;5.22;2.58;;;;;;;;;;5081998;28;20025;-86
2023/05/07 02:00:31;;;;;;;4.28;2.60;;;;;;;;;;5081691;28;20476;-85
2023/05/07 02:03:00;;;;;;;6.20;3.05;;;;;;;;;;5083711;28;20043;-88
2023/05/07 02:05:31;;;;;;;6.43;3.03;;;;;;;;;;5077506;28;20031;-86
2023/05/07 02:07:59;;;;;;;3.60;2.63;;;;;;;;;;5083016;28;20364;-87
2023/05/07 02:10:24;;;;;;;3.95;2.45;;;;;;;;;;5079602;28;20040;-85
2023/05/07 02:12:52;;;;;;;5.72;3.47;;;;;;;;;;5083050;28;20376;-84
2023/05/07 02:15:18;;;;;;;3.60;2.25;;;;;;;;;;5082367;28;20032;-82
2023/05/07 02:18:04;;;;;;;5.80;2.53;;;;;;;;;;5080672;28;20025;-83
2023/05/07 02:20:29;;;;;;;5.10;3.08;;;;;;;;;;5089213;28;20100;-83
2023/05/07 02:22:55;;;;;;;3.70;2.65;;;;;;;;;;5094172;28;20048;-84
2023/05/07 02:25:21;;;;;;;5.03;3.13;;;;;;;;;;5078288;28;20028;-83
2023/05/07 02:27:46;;;;;;;3.92;2.67;;;;;;;;;;5081411;28;20036;-83
2023/05/07 02:30:12;;;;;;;4.13;2.80;;;;;;;;;;5089168;28;20115;-84
2023/05/07 02:32:37;;;;;;;5.13;2.70;;;;;;;;;;5073247;28;20094;-84
2023/05/07 02:35:03;;;;;;;4.82;2.47;;;;;;;;;;5077452;28;20086;-84
2023/05/07 02:37:29;;;;;;;6.65;3.10;;;;;;;;;;5084212;28;20468;-85
2023/05/07 02:39:54;;;;;;;4.30;3.25;;;;;;;;;;5088609;28;20463;-84
2023/05/07 02:42:20;;;;;;;5.90;3.50;;;;;;;;;;5081063;28;20027;-86
2023/05/07 02:44:45;;;;;;;3.30;2.47;;;;;;;;;;5082860;28;20048;-85
2023/05/07 02:47:12;;;;;;;4.80;2.83;;;;;;;;;;5075512;28;20052;-86
2023/05/07 02:49:41;;;;;;;4.47;3.00;;;;;;;;;;5081625;28;20028;-87
2023/05/07 02:52:10;;;;;;;6.25;2.40;;;;;;;;;;5078634;28;20098;-87
2023/05/07 02:54:35;;;;;;;5.55;3.00;;;;;;;;;;5081133;28;20024;-85
2023/05/07 02:57:01;;;;;;;5.72;3.25;;;;;;;;;;5082567;28;20539;-87
2023/05/07 02:59:30;;;;;;;5.38;3.55;;;;;;;;;;5077187;28;20468;-87
2023/05/07 03:01:55;;;;;;;5.32;3.55;;;;;;;;;;5084500;28;20342;-85
2023/05/07 03:04:21;;;;;;;5.88;3.17;;;;;;;;;;5082420;28;20027;-84
2023/05/07 03:06:47;;;;;;;8.40;3.63;;;;;;;;;;5086825;28;20020;-84
2023/05/07 03:09:18;;;;;;;5.88;4.07;;;;;;;;;;5086942;28;20468;-86
2023/05/07 03:11:44;;;;;;;6.15;3.22;;;;;;;;;;5079786;28;20032;-85
2023/05/07 03:14:09;;;;;;;3.92;2.42;;;;;;;;;;5081648;28;20492;-84
2023/05/07 03:16:35;;;;;;;6.22;4.03;;;;;;;;;;5086107;28;20457;-85
2023/05/07 03:19:01;;;;;;;4.13;2.30;;;;;;;;;;5078802;28;20032;-83
2023/05/07 03:21:30;;;;;;;4.55;2.75;;;;;;;;;;5084475;28;20365;-83
2023/05/07 03:23:58;;;;;;;7.05;3.03;;;;;;;;;;5072039;28;20031;-83
2023/05/07 03:26:25;;;;;;;7.38;4.00;;;;;;;;;;5078127;28;20021;-85
2023/05/07 03:28:50;;;;;;;7.65;3.10;;;;;;;;;;5082152;28;20044;-84
2023/05/07 03:31:16;;;;;;;8.35;4.43;;;;;;;;;;5086214;28;20429;-84
2023/05/07 03:33:57;;;;;;;7.35;3.88;;;;;;;;;;5083308;28;20120;-86
2023/05/07 03:36:23;;;;;;;3.95;2.80;;;;;;;;;;5078135;28;20055;-87
2023/05/07 03:38:50;;;;;;;4.47;2.65;;;;;;;;;;5078316;28;20476;-84
2023/05/07 03:41:15;;;;;;;6.72;3.65;;;;;;;;;;5077063;28;20056;-83
2023/05/07 03:43:41;;;;;;;4.90;2.75;;;;;;;;;;5079095;28;20059;-82
2023/05/07 03:46:07;;;;;;;4.25;2.55;;;;;;;;;;5076453;28;20078;-83
2023/05/07 03:48:32;;;;;;;4.85;3.33;;;;;;;;;;5086798;28;20032;-85
2023/05/07 03:50:59;;;;;;;5.95;3.20;;;;;;;;;;5082809;28;20454;-84
2023/05/07 03:53:24;;;;;;;7.15;3.67;;;;;;;;;;5080073;28;20105;-84
2023/05/07 03:55:52;;;;;;;4.18;2.88;;;;;;;;;;5080353;28;20032;-87
2023/05/07 03:58:21;;;;;;;3.78;2.45;;;;;;;;;;5074382;28;20051;-87
2023/05/07 04:00:50;;;;;;;5.57;2.83;;;;;;;;;;5077066;28;20024;-86
2023/05/07 04:03:18;;;;;;;4.57;2.22;;;;;;;;;;5073443;28;20111;-86
2023/05/07 04:05:43;;;;;;;5.75;2.92;;;;;;;;;;5106757;27;20032;-86
2023/05/07 04:08:09;;;;;;;6.28;3.90;;;;;;;;;;5079343;28;20108;-85
2023/05/07 04:10:37;;;;;;;5.10;3.40;;;;;;;;;;5075136;28;20039;-86
2023/05/07 04:13:09;;;;;;;4.90;3.20;;;;;;;;;;5069620;28;20476;-86
2023/05/07 04:15:37;;;;;;;4.82;3.38;;;;;;;;;;5080531;28;20032;-88
2023/05/07 04:18:06;;;;;;;6.03;3.92;;;;;;;;;;5079599;28;20036;-88
2023/05/07 04:20:49;;;;;;;9.13;4.75;;;;;;;;;;5086034;28;20020;-88
2023/05/07 04:23:24;;;;;;;9.68;5.45;;;;;;;;;;5073234;28;20134;-86
2023/05/07 04:25:50;;;;;;;10.05;5.53;;;;;;;;;;5080504;28;20146;-83
2023/05/07 04:28:16;;;;;;;13.60;4.85;;;;;;;;;;5078699;28;20111;-86
2023/05/07 04:30:41;;;;;;;11.68;5.75;;;;;;;;;;5075618;28;20030;-86
2023/05/07 04:33:07;;;;;;;9.88;5.72;;;;;;;;;;5106585;27;20021;-86
2023/05/07 04:35:33;;;;;;;8.32;5.15;;;;;;;;;;5081627;28;20044;-85
2023/05/07 04:37:58;;;;;;;6.95;4.95;;;;;;;;;;5080803;28;20035;-87
2023/05/07 04:40:23;;;;;;;7.50;4.95;;;;;;;;;;5076904;28;20024;-86
2023/05/07 04:42:49;;;;;;;6.43;4.03;;;;;;;;;;5075887;28;20031;-87
2023/05/07 04:45:15;;;;;;;12.07;6.10;;;;;;;;;;5080783;28;20028;-88
2023/05/07 04:47:40;;;;;;;10.63;4.35;;;;;;;;;;5080329;28;20032;-86
2023/05/07 04:50:07;;;;;;;8.93;4.60;;;;;;;;;;5073156;28;20028;-86
2023/05/07 04:52:32;;;;;;;6.78;4.90;;;;;;;;;;5108197;27;20518;-86
2023/05/07 04:55:01;;;;;;;12.27;5.63;;;;;;;;;;5078019;28;20024;-88
2023/05/07 04:57:27;;;;;;;7.68;4.32;;;;;;;;;;5082072;28;20115;-87
2023/05/07 04:59:53;;;;;;;7.60;4.70;;;;;;;;;;5080489;28;20550;-87
2023/05/07 05:02:19;;;;;;;10.75;4.60;;;;;;;;;;5082816;28;20030;-89
2023/05/07 05:04:44;;;;;;;11.43;5.15;;;;;;;;;;5073867;28;20099;-87
2023/05/07 05:07:10;;;;;;;12.02;4.63;;;;;;;;;;5115298;27;20131;-87
2023/05/07 05:09:35;;;;;;;7.25;4.65;;;;;;;;;;5074033;28;20016;-88
2023/05/07 05:12:01;;;;;;;7.82;4.32;;;;;;;;;;5078679;28;20048;-88
2023/05/07 05:14:27;;;;;;;7.55;4.82;;;;;;;;;;5078319;28;20349;-88
2023/05/07 05:16:53;;;;;;;7.88;5.18;;;;;;;;;;5078627;28;20032;-88
2023/05/07 05:19:18;;;;;;;9.98;5.05;;;;;;;;;;5076325;28;20036;-90
2023/05/07 05:21:45;;;;;;;7.88;4.40;;;;;;;;;;5077370;28;20029;-87
2023/05/07 05:24:10;;;;;;;8.82;5.10;;;;;;;;;;5079774;28;20032;-88
2023/05/07 05:26:35;;;;;;;8.27;4.47;;;;;;;;;;5075852;28;21615;-86
2023/05/07 05:29:01;;;;;;;7.20;4.45;;;;;;;;;;5082328;28;20028;-88
2023/05/07 05:31:26;;;;;;;9.23;4.20;;;;;;;;;;5080606;28;20027;-86
2023/05/07 05:33:52;;;;;;;10.02;5.60;;;;;;;;;;5076644;28;20469;-88
2023/05/07 05:36:17;;;;;;;8.15;4.80;;;;;;;;;;5074038;28;20063;-90
2023/05/07 05:38:44;;;;;;;6.03;4.65;;;;;;;;;;5079135;28;20380;-90
2023/05/07 05:41:09;;;;;;;10.20;4.70;;;;;;;;;;5076097;28;20444;-90
2023/05/07 05:43:35;;;;;;;7.18;4.80;;;;;;;;;;5081122;28;20052;-90
2023/05/07 05:46:00;;;;;;;8.60;4.93;;;;;;;;;;5084181;28;20093;-91
2023/05/07 05:48:26;;;;;;;11.02;4.78;;;;;;;;;;5077727;28;20024;-91
2023/05/07 05:50:51;;;;;;;6.38;4.50;;;;;;;;;;5080042;28;20029;-92
2023/05/07 05:53:17;;;;;;;6.35;4.43;;;;;;;;;;5077848;28;20499;-90
2023/05/07 05:55:43;;;;;;;8.35;5.18;;;;;;;;;;5071922;28;20123;-87
2023/05/07 05:58:09;;;;;;;9.80;4.93;;;;;;;;;;5080415;28;20038;-86
2023/05/07 06:00:34;;;;;;;8.25;5.20;;;;;;;;;;5073948;28;20106;-87
2023/05/07 06:03:00;;;;;;;7.95;4.43;;;;;;;;;;5074021;28;20032;-88
2023/05/07 06:05:25;;;;;;;8.70;5.63;;;;;;;;;;5077492;28;20398;-87
2023/05/07 06:07:50;;;;;;;7.95;5.07;;;;;;;;;;5069289;28;20481;-86
2023/05/07 06:10:16;;;;;;;10.35;6.18;;;;;;;;;;5075226;28;20032;-87
2023/05/07 06:12:41;;;;;;;6.55;4.70;;;;;;;;;;5082109;28;20036;-88
2023/05/07 06:15:07;;;;;;;7.82;4.57;;;;;;;;;;5077398;28;20532;-87
2023/05/07 06:17:34;;;;;;;7.53;4.78;;;;;;;;;;5074584;28;20043;-88
2023/05/07 06:19:59;;;;;;;7.03;4.53;;;;;;;;;;5077659;28;20027;-89
2023/05/07 06:22:24;;;;;;;8.77;4.82;;;;;;;;;;5083599;28;20359;-84
2023/05/07 06:24:50;;;;;;;6.20;4.25;;;;;;;;;;5068470;28;20548;-86
2023/05/07 06:27:15;;;;;;;6.72;4.22;;;;;;;;;;5075008;28;20024;-88
2023/05/07 06:29:41;;;;;;;8.25;3.80;;;;;;;;;;5079437;28;20038;-87
2023/05/07 06:32:10;;;;;;;6.20;3.72;;;;;;;;;;5084329;28;20380;-89
2023/05/07 06:34:36;;;;;;;6.68;4.55;;;;;;;;;;5072204;28;20032;-86
2023/05/07 06:37:02;;;;;;;6.63;3.55;;;;;;;;;;5080645;28;20375;-88
2023/05/07 06:39:27;;;;;;;6.72;4.15;;;;;;;;;;5080029;28;20051;-89
2023/05/07 06:41:53;;;;;;;6.63;3.83;;;;;;;;;;5076340;28;20097;-86
2023/05/07 06:44:18;;;;;;;6.15;4.20;;;;;;;;;;5078097;28;20115;-88
2023/05/07 06:46:44;;;;;;;7.70;4.72;;;;;;;;;;5082026;28;20407;-87
2023/05/07 06:49:10;;;;;;;7.57;4.35;;;;;;;;;;5079628;28;20051;-86
2023/05/07 06:51:36;;;;;;;8.38;4.53;;;;;;;;;;5073672;28;20484;-89
2023/05/07 06:54:01;;;;;;;5.63;4.20;;;;;;;;;;5076060;28;20063;-88
2023/05/07 06:56:27;;;;;;;9.10;4.25;;;;;;;;;;5083761;28;20048;-84
2023/05/07 06:58:52;;;;;;;6.65;3.63;;;;;;;;;;5071793;28;20067;-86
2023/05/07 07:01:17;;;;;;;4.65;3.70;;;;;;;;;;5072524;28;20028;-84
2023/05/07 07:03:43;;;;;;;8.40;3.25;;;;;;;;;;5082047;28;20471;-87
2023/05/07 07:06:08;;;;;;;7.18;3.80;;;;;;;;;;5081458;28;20107;-87
2023/05/07 07:08:34;;;;;;;7.18;3.83;;;;;;;;;;5116086;27;20016;-88
2023/05/07 07:11:00;;;;;;;4.80;3.03;;;;;;;;;;5076706;28;20036;-86
2023/05/07 07:13:25;;;;;;;5.78;3.47;;;;;;;;;;5083984;28;20064;-88
2023/05/07 07:15:51;;;;;;;4.85;3.42;;;;;;;;;;5076993;28;20193;-85
2023/05/07 07:18:17;;;;;;;8.50;4.03;;;;;;;;;;5080782;28;20130;-86
2023/05/07 07:20:44;;;;;;;6.63;4.32;;;;;;;;;;5077414;28;20111;-85
2023/05/07 07:23:09;;;;;;;5.00;3.67;;;;;;;;;;5079130;28;20054;-85
2023/05/07 07:25:35;;;;;;;20.85;9.85;;;;;;;;;;5080033;28;20043;-86
2023/05/07 07:28:00;;;;;;;29.23;16.88;;;;;;;;;;5069496;28;20039;-88
2023/05/07 07:30:26;;;;;;;33.25;20.65;;;;;;;;;;5081518;28;20028;-86
2023/05/07 07:32:52;;;;;;;6.20;4.50;;;;;;;;;;5083340;28;20149;-85
2023/05/07 07:35:18;;;;;;;3.92;3.28;;;;;;;;;;5081677;28;20052;-86
2023/05/07 07:37:43;;;;;;;6.28;3.92;;;;;;;;;;5074144;28;20041;-86
2023/05/07 07:40:09;;;;;;;7.10;3.90;;;;;;;;;;5074530;28;20094;-90
2023/05/07 07:42:34;;;;;;;6.45;3.63;;;;;;;;;;5076451;28;20020;-85
2023/05/07 07:45:00;;;;;;;7.05;3.67;;;;;;;;;;5078052;28;20115;-85
2023/05/07 07:47:25;;;;;;;5.47;3.63;;;;;;;;;;5071468;28;20078;-84
2023/05/07 07:49:51;;;;;;;8.18;4.70;;;;;;;;;;5079689;28;20020;-84
2023/05/07 07:52:16;;;;;;;6.25;3.50;;;;;;;;;;5074003;28;20024;-87
2023/05/07 07:54:42;;;;;;;7.95;3.80;;;;;;;;;;5075039;28;20468;-86
2023/05/07 07:57:08;;;;;;;6.72;4.20;;;;;;;;;;5087042;28;20464;-85
2023/05/07 07:59:33;;;;;;;5.85;3.97;;;;;;;;;;5075087;28;20149;-86
2023/05/07 08:01:59;;;;;;;7.25;3.95;;;;;;;;;;5073261;28;20070;-85
2023/05/07 08:04:24;;;;;;;6.13;4.05;;;;;;;;;;5071719;28;20029;-84
2023/05/07 08:06:49;;;;;;;7.47;3.90;;;;;;;;;;5075410;28;20066;-86
2023/05/07 08:09:15;;;;;;;6.70;3.58;;;;;;;;;;5070293;28;20025;-86
2023/05/07 08:11:40;;;;;;;7.13;4.45;;;;;;;;;;5117413;27;20107;-87
2023/05/07 08:14:06;;;;;;;5.72;3.30;;;;;;;;;;5080437;28;20463;-87
2023/05/07 08:16:31;;;;;;;6.50;3.92;;;;;;;;;;5076071;28;20028;-86
2023/05/07 08:18:57;;;;;;;7.10;3.88;;;;;;;;;;5075952;28;20048;-85
2023/05/07 08:21:23;;;;;;;11.90;4.47;;;;;;;;;;5079195;28;20491;-84
2023/05/07 08:23:48;;;;;;;7.35;4.15;;;;;;;;;;5083890;28;20023;-85
2023/05/07 08:26:14;;;;;;;7.07;3.80;;;;;;;;;;5080944;28;20454;-86
2023/05/07 08:28:40;;;;;;;9.73;5.90;;;;;;;;;;5089201;28;20021;-87
2023/05/07 08:31:05;;;;;;;4.60;3.65;;;;;;;;;;5079681;28;20099;-88
2023/05/07 08:33:31;;;;;;;6.20;4.10;;;;;;;;;;5078717;28;20031;-88
2023/05/07 08:35:56;;;;;;;7.07;3.78;;;;;;;;;;5073915;28;20454;-86
2023/05/07 08:38:22;;;;;;;6.63;4.43;;;;;;;;;;5079814;28;20028;-87
2023/05/07 08:40:47;;;;;;;5.28;3.83;;;;;;;;;;5071793;28;20032;-86
2023/05/07 08:43:14;;;;;;;4.07;2.70;;;;;;;;;;5090605;28;20024;-86
2023/05/07 08:45:41;;;;;;;5.65;3.60;;;;;;;;;;5084649;28;20489;-85
2023/05/07 08:48:23;;;;;;;4.80;2.83;;;;;;;;;;5081907;28;20051;-88
2023/05/07 08:50:49;;;;;;;4.57;3.17;;;;;;;;;;5082711;28;20028;-86
2023/05/07 08:53:24;;;;;;;6.30;3.15;;;;;;;;;;5085576;28;20141;-88
2023/05/07 08:55:50;;;;;;;5.32;3.75;;;;;;;;;;5080496;28;20083;-85
2023/05/07 08:58:16;;;;;;;5.03;3.40;;;;;;;;;;5084549;28;20029;-86
2023/05/07 09:00:44;;;;;;;8.48;3.45;;;;;;;;;;5084578;28;20035;-86
2023/05/07 09:03:13;;;;;;;6.78;3.72;;;;;;;;;;5115105;27;20035;-86
2023/05/07 09:05:39;;;;;;;8.30;4.88;;;;;;;;;;5081815;28;20027;-87
2023/05/07 09:08:07;;;;;;;8.07;5.15;;;;;;;;;;5080396;28;20498;-89
2023/05/07 09:10:38;;;;;;;8.95;5.53;;;;;;;;;;5081088;28;20531;-88
2023/05/07 09:13:14;;;;;;;6.32;4.15;;;;;;;;;;5078592;28;20028;-88
2023/05/07 09:15:42;;;;;;;7.15;4.10;;;;;;;;;;5073018;28;20056;-86
2023/05/07 09:18:08;;;;;;;5.35;4.10;;;;;;;;;;5077797;28;20036;-87
2023/05/07 09:21:02;;;;;;;6.00;3.90;;;;;;;;;;5077886;28;20130;-84
2023/05/07 09:23:49;;;;;;;5.43;4.43;;;;;;;;;;5078097;28;20036;-86
2023/05/07 09:26:14;;;;;;;8.30;3.78;;;;;;;;;;5074303;28;20078;-83
2023/05/07 09:28:43;;;;;;;7.78;4.95;;;;;;;;;;5080336;28;20016;-86
2023/05/07 09:31:10;;;;;;;4.55;3.17;;;;;;;;;;5084392;28;20031;-85
2023/05/07 09:33:36;;;;;;;5.03;4.03;;;;;;;;;;5078574;28;20587;-84
2023/05/07 09:36:19;;;;;;;7.40;4.35;;;;;;;;;;5079080;28;20124;-86
2023/05/07 09:38:49;;;;;;;6.78;4.43;;;;;;;;;;5080166;28;20048;-91
2023/05/07 09:41:15;;;;;;;6.10;3.97;;;;;;;;;;5078602;28;20036;-89
2023/05/07 09:43:43;;;;;;;6.93;4.00;;;;;;;;;;5084790;28;20051;-89
2023/05/07 09:46:14;;;;;;;6.45;4.35;;;;;;;;;;5089438;28;20016;-87
2023/05/07 09:48:43;;;;;;;9.20;4.15;;;;;;;;;;5090783;28;20024;-88
2023/05/07 09:51:40;;;;;;;10.48;4.30;;;;;;;;;;5086091;28;20027;-88
2023/05/07 09:54:06;;;;;;;7.15;3.97;;;;;;;;;;5076804;28;20040;-84
2023/05/07 09:56:32;;;;;;;6.55;3.60;;;;;;;;;;5086288;28;20031;-85
2023/05/07 09:59:03;;;;;;;6.28;4.20;;;;;;;;;;5077740;28;20024;-84
2023/05/07 10:01:31;;;;;;;7.75;3.67;;;;;;;;;;5080103;28;20029;-87
2023/05/07 10:03:59;;;;;;;8.07;3.75;;;;;;;;;;5070427;28;20442;-87
2023/05/07 10:06:25;;;;;;;7.80;3.70;;;;;;;;;;5078359;28;20020;-86
2023/05/07 10:08:52;;;;;;;4.50;3.53;;;;;;;;;;5086135;28;20048;-89
2023/05/07 10:11:18;;;;;;;6.25;3.80;;;;;;;;;;5081255;28;20016;-88
2023/05/07 10:13:46;;;;;;;7.00;4.53;;;;;;;;;;5078117;28;20085;-87
2023/05/07 10:16:12;;;;;;;6.63;4.35;;;;;;;;;;5073506;28;20024;-85
2023/05/07 10:18:40;;;;;;;7.70;3.97;;;;;;;;;;5083181;28;20081;-87
2023/05/07 10:21:18;;;;;;;7.95;4.22;;;;;;;;;;5083111;28;20089;-89
2023/05/07 10:23:50;;;;;;;6.30;4.15;;;;;;;;;;5080454;28;20020;-91
2023/05/07 10:26:20;;;;;;;7.88;4.25;;;;;;;;;;5078197;28;20035;-87
2023/05/07 10:28:49;;;;;;;7.13;4.28;;;;;;;;;;5079858;28;20024;-89
2023/05/07 10:31:37;;;;;;;5.80;3.93;;;;;;;;;;5079911;28;20032;-87
2023/05/07 10:34:09;;;;;;;7.63;4.00;;;;;;;;;;5073720;28;20188;-85
2023/05/07 10:36:35;;;;;;;6.35;3.83;;;;;;;;;;5076980;28;20036;-87
2023/05/07 10:39:01;;;;;;;5.45;3.75;;;;;;;;;;5079160;28;20027;-86
2023/05/07 10:41:26;;;;;;;5.53;3.28;;;;;;;;;;5088042;28;20103;-86
2023/05/07 10:43:52;;;;;;;10.65;4.00;;;;;;;;;;5074860;28;20035;-88
2023/05/07 10:46:19;;;;;;;7.75;3.58;;;;;;;;;;5078444;28;20026;-87
2023/05/07 10:49:03;;;;;;;6.18;3.97;;;;;;;;;;5068203;28;20028;-87
2023/05/07 10:51:31;;;;;;;5.28;3.83;;;;;;;;;;5080499;28;20058;-87
2023/05/07 10:54:11;;;;;;;5.18;3.63;;;;;;;;;;5082170;28;20016;-86
2023/05/07 10:56:37;;;;;;;7.22;4.05;;;;;;;;;;5082582;28;20085;-87
2023/05/07 10:59:26;;;;;;;5.93;4.30;;;;;;;;;;5083173;28;20123;-86
2023/05/07 11:01:55;;;;;;;6.85;3.25;;;;;;;;;;5079513;28;20017;-88
2023/05/07 11:04:26;;;;;;;5.55;3.45;;;;;;;;;;5077576;28;20099;-87
2023/05/07 11:07:09;;;;;;;4.22;3.38;;;;;;;;;;5079699;28;20139;-89
2023/05/07 11:10:00;;;;;;;6.95;4.05;;;;;;;;;;5081955;28;20076;-87
2023/05/07 11:12:38;;;;;;;5.47;3.85;;;;;;;;;;5076585;28;20028;-87
2023/05/07 11:15:15;;;;;;;5.82;3.70;;;;;;;;;;5071343;28;20111;-87
2023/05/07 11:17:55;;;;;;;4.97;3.00;;;;;;;;;;5081767;28;20059;-87
2023/05/07 11:20:20;;;;;;;5.25;3.72;;;;;;;;;;5081427;28;20052;-89
2023/05/07 11:22:47;;;;;;;4.60;2.97;;;;;;;;;;5072060;28;20056;-90
2023/05/07 11:25:19;;;;;;;4.70;3.40;;;;;;;;;;5085167;28;20111;-91
2023/05/07 11:27:45;;;;;;;5.70;3.55;;;;;;;;;;5081294;28;20032;-90
2023/05/07 11:30:17;;;;;;;5.35;3.58;;;;;;;;;;5082119;28;20031;-93
2023/05/07 11:32:42;;;;;;;4.68;3.28;;;;;;;;;;5078786;28;20020;-87
2023/05/07 11:35:08;;;;;;;6.68;3.50;;;;;;;;;;5079299;28;20048;-87
2023/05/07 11:37:34;;;;;;;7.25;3.92;;;;;;;;;;5073487;28;20028;-90
2023/05/07 11:40:10;;;;;;;5.28;3.97;;;;;;;;;;5084467;28;20103;-88
2023/05/07 11:42:38;;;;;;;5.03;3.70;;;;;;;;;;5074167;28;20016;-87
2023/05/07 11:45:05;;;;;;;4.40;3.67;;;;;;;;;;5084697;28;20346;-88
2023/05/07 11:47:31;;;;;;;5.50;3.70;;;;;;;;;;5079959;28;20460;-88
2023/05/07 11:49:57;;;;;;;8.45;4.00;;;;;;;;;;5078877;28;20090;-89
2023/05/07 11:52:23;;;;;;;5.10;3.63;;;;;;;;;;5085804;28;20032;-89
2023/05/07 11:54:56;;;;;;;5.55;3.88;;;;;;;;;;5083986;28;20028;-88
2023/05/07 11:57:23;;;;;;;4.47;3.58;;;;;;;;;;5081150;28;20506;-89
2023/05/07 11:59:59;;;;;;;5.40;3.95;;;;;;;;;;5078649;28;20048;-89
2023/05/07 12:02:25;;;;;;;4.32;3.45;;;;;;;;;;5083637;28;20115;-89
2023/05/07 12:04:51;;;;;;;4.95;3.30;;;;;;;;;;5074781;28;20453;-89
2023/05/07 12:07:18;;;;;;;5.85;3.30;;;;;;;;;;5111627;27;20062;-90
2023/05/07 12:09:44;;;;;;;4.38;2.90;;;;;;;;;;5082349;28;20036;-90
2023/05/07 12:12:10;;;;;;;4.63;2.85;;;;;;;;;;5082240;28;20475;-90
2023/05/07 12:14:42;;;;;;;3.40;2.83;;;;;;;;;;5080857;28;20077;-90
2023/05/07 12:17:09;;;;;;;4.97;2.83;;;;;;;;;;5079058;28;20411;-91
2023/05/07 12:19:36;;;;;;;3.75;2.95;;;;;;;;;;5079503;28;20027;-90
2023/05/07 12:22:07;;;;;;;4.18;2.90;;;;;;;;;;5078038;28;20032;-90
2023/05/07 12:24:57;;;;;;;4.40;2.70;;;;;;;;;;5082688;28;20037;-89
2023/05/07 12:27:23;;;;;;;4.82;3.58;;;;;;;;;;5085222;28;20533;-90
2023/05/07 12:29:50;;;;;;;3.83;2.90;;;;;;;;;;5076274;28;20032;-90
2023/05/07 12:32:20;;;;;;;5.45;2.80;;;;;;;;;;5084163;28;20566;-89
2023/05/07 12:34:49;;;;;;;6.68;3.17;;;;;;;;;;5074400;28;20066;-89
2023/05/07 12:37:15;;;;;;;5.05;3.20;;;;;;;;;;5076850;28;20032;-89
2023/05/07 12:40:07;;;;;;;4.60;3.13;;;;;;;;;;5076810;28;20434;-88
2023/05/07 12:42:35;;;;;;;3.33;2.80;;;;;;;;;;5082035;28;20056;-89
2023/05/07 12:45:07;;;;;;;4.72;2.95;;;;;;;;;;5076527;28;20035;-89
2023/05/07 12:47:33;;;;;;;3.38;2.60;;;;;;;;;;5078676;28;20078;-89
2023/05/07 12:49:59;;;;;;;6.95;3.10;;;;;;;;;;5083299;28;20052;-90
2023/05/07 12:52:25;;;;;;;3.70;2.72;;;;;;;;;;5080919;28;20035;-89
2023/05/07 12:54:50;;;;;;;8.05;2.78;;;;;;;;;;5080643;28;20410;-89
2023/05/07 12:57:19;;;;;;;3.95;2.58;;;;;;;;;;5080835;28;20032;-87
2023/05/07 12:59:44;;;;;;;3.53;3.05;;;;;;;;;;5083133;28;20027;-89
2023/05/07 13:02:10;;;;;;;3.88;2.50;;;;;;;;;;5077179;28;20033;-87
2023/05/07 13:04:35;;;;;;;5.07;2.72;;;;;;;;;;5078231;28;20023;-88
2023/05/07 13:07:02;;;;;;;4.70;3.00;;;;;;;;;;5084453;28;20016;-87
2023/05/07 13:09:30;;;;;;;3.45;2.78;;;;;;;;;;5082439;28;20024;-87
2023/05/07 13:11:56;;;;;;;3.20;2.67;;;;;;;;;;5079302;28;20066;-87
2023/05/07 13:14:21;;;;;;;3.83;2.83;;;;;;;;;;5079397;28;20105;-87
2023/05/07 13:16:47;;;;;;;3.05;2.75;;;;;;;;;;5083500;28;20028;-89
2023/05/07 13:19:13;;;;;;;5.03;2.72;;;;;;;;;;5082011;28;20059;-90
2023/05/07 13:21:38;;;;;;;4.70;2.92;;;;;;;;;;5084979;28;20028;-91
2023/05/07 13:24:04;;;;;;;3.17;2.38;;;;;;;;;;5082833;28;20028;-93
2023/05/07 13:26:30;;;;;;;4.35;2.60;;;;;;;;;;5077488;28;20016;-88
2023/05/07 13:28:57;;;;;;;3.35;2.55;;;;;;;;;;5080008;28;20063;-90
2023/05/07 13:31:24;;;;;;;3.72;2.80;;;;;;;;;;5074482;28;20578;-90
2023/05/07 13:33:50;;;;;;;3.25;2.85;;;;;;;;;;5079564;28;20024;-87
2023/05/07 13:36:15;;;;;;;3.55;2.30;;;;;;;;;;5076251;28;20558;-88
2023/05/07 13:38:40;;;;;;;3.60;2.60;;;;;;;;;;5082316;28;20036;-88
2023/05/07 13:41:06;;;;;;;3.85;2.70;;;;;;;;;;5086586;28;20463;-90
2023/05/07 13:43:33;;;;;;;7.00;3.05;;;;;;;;;;5077912;28;20020;-85
2023/05/07 13:45:59;;;;;;;3.97;2.63;;;;;;;;;;5079534;28;20044;-86
2023/05/07 13:48:24;;;;;;;3.45;2.97;;;;;;;;;;5085697;28;20059;-88
2023/05/07 13:50:49;;;;;;;4.18;2.85;;;;;;;;;;5078001;28;20418;-89
2023/05/07 13:53:18;;;;;;;3.95;2.83;;;;;;;;;;5084057;28;20024;-89
2023/05/07 13:55:43;;;;;;;4.18;3.05;;;;;;;;;;5080228;28;20024;-87
2023/05/07 13:58:09;;;;;;;6.47;3.10;;;;;;;;;;5080719;28;20047;-88
2023/05/07 14:00:35;;;;;;;3.33;2.47;;;;;;;;;;5076970;28;20102;-88
2023/05/07 14:03:00;;;;;;;2.97;2.67;;;;;;;;;;5086746;28;20066;-91
2023/05/07 14:05:29;;;;;;;4.85;3.20;;;;;;;;;;5081255;28;20478;-87
2023/05/07 14:07:56;;;;;;;3.67;3.27;;;;;;;;;;5076017;28;20512;-90
2023/05/07 14:10:22;;;;;;;2.92;2.58;;;;;;;;;;5079437;28;20031;-91
2023/05/07 14:12:47;;;;;;;4.07;2.42;;;;;;;;;;5088501;28;20028;-87
2023/05/07 14:15:13;;;;;;;5.60;3.67;;;;;;;;;;5084571;28;20032;-90
2023/05/07 14:17:39;;;;;;;9.30;6.07;;;;;;;;;;5079940;28;20036;-87
2023/05/07 14:20:08;;;;;;;7.07;5.10;;;;;;;;;;5075350;28;20040;-89
2023/05/07 14:22:33;;;;;;;6.65;4.80;;;;;;;;;;5078933;28;20028;-88
2023/05/07 14:24:59;;;;;;;4.68;3.55;;;;;;;;;;5081248;28;20044;-88
2023/05/07 14:27:25;;;;;;;5.18;2.88;;;;;;;;;;5080962;28;20039;-90
2023/05/07 14:29:51;;;;;;;5.43;2.90;;;;;;;;;;5074570;28;20093;-89
2023/05/07 14:32:19;;;;;;;5.43;2.92;;;;;;;;;;5085440;28;20024;-89
2023/05/07 14:34:45;;;;;;;4.60;2.53;;;;;;;;;;5086604;28;20024;-87
2023/05/07 14:37:10;;;;;;;2.15;1.85;;;;;;;;;;5088280;28;20475;-89
2023/05/07 14:39:36;;;;;;;3.90;3.38;;;;;;;;;;5080742;28;20063;-90
2023/05/07 14:42:01;;;;;;;3.30;2.88;;;;;;;;;;5087431;28;20372;-88
2023/05/07 14:44:27;;;;;;;3.25;2.67;;;;;;;;;;5086349;28;20028;-85
2023/05/07 14:46:52;;;;;;;5.97;3.00;;;;;;;;;;5085946;28;20020;-86